Terminal Aerodrome Forecast
Issued by NWS Cleveland, OH

Home | Current Version | Previous Version | Graphics & Text | Print | Product List | Glossary Off
Versions: 1 2 3 4 5 6 7 8 9 10 11 12 13 14 15 16 17 18 19 20

124
FTUS41 KCLE 171735
TAFYNG
TAF
KYNG 171735Z 1718/1818 13004KT 6SM BR OVC150
      TEMPO 1718/1721 5SM BR
     FM172100 18006KT P6SM VCSH BKN040 OVC080
      TEMPO 1721/1801 -RA BKN025
     FM180200 21006KT 5SM BR VCSH OVC015
     FM180900 21007KT 4SM BR OVC008=

USA.gov is the U.S. government's official web portal to all federal, state and local government web resources and services.